sensor_id;sensor_type;location;lat;lon;timestamp;P1;durP1;ratioP1;P2;durP2;ratioP2
4274;SDS011;2151;50.988;11.068;2022-12-18T00:01:32;144.10;;;8.63;;
4274;SDS011;2151;50.988;11.068;2022-12-18T00:04:01;144.37;;;8.97;;
4274;SDS011;2151;50.988;11.068;2022-12-18T00:06:32;144.07;;;8.63;;
4274;SDS011;2151;50.988;11.068;2022-12-18T00:08:59;144.33;;;8.77;;
4274;SDS011;2151;50.988;11.068;2022-12-18T00:11:27;144.60;;;8.77;;
4274;SDS011;2151;50.988;11.068;2022-12-18T00:13:55;144.27;;;8.80;;
4274;SDS011;2151;50.988;11.068;2022-12-18T00:16:23;143.70;;;8.77;;
4274;SDS011;2151;50.988;11.068;2022-12-18T00:18:50;144.00;;;8.73;;
4274;SDS011;2151;50.988;11.068;2022-12-18T00:21:17;144.20;;;8.77;;
4274;SDS011;2151;50.988;11.068;2022-12-18T00:23:45;144.10;;;8.57;;
4274;SDS011;2151;50.988;11.068;2022-12-18T00:26:13;144.43;;;8.93;;
4274;SDS011;2151;50.988;11.068;2022-12-18T00:28:41;144.60;;;8.63;;
4274;SDS011;2151;50.988;11.068;2022-12-18T00:31:10;144.33;;;8.70;;
4274;SDS011;2151;50.988;11.068;2022-12-18T00:33:37;144.23;;;8.67;;
4274;SDS011;2151;50.988;11.068;2022-12-18T00:36:04;144.23;;;9.00;;
4274;SDS011;2151;50.988;11.068;2022-12-18T00:38:31;144.13;;;8.60;;
4274;SDS011;2151;50.988;11.068;2022-12-18T00:40:58;144.87;;;8.90;;
4274;SDS011;2151;50.988;11.068;2022-12-18T00:43:24;144.50;;;8.77;;
4274;SDS011;2151;50.988;11.068;2022-12-18T00:45:51;144.40;;;8.67;;
4274;SDS011;2151;50.988;11.068;2022-12-18T00:48:17;144.30;;;8.57;;
4274;SDS011;2151;50.988;11.068;2022-12-18T00:50:44;144.07;;;8.97;;
4274;SDS011;2151;50.988;11.068;2022-12-18T00:53:10;144.87;;;9.07;;
4274;SDS011;2151;50.988;11.068;2022-12-18T00:55:38;144.13;;;8.83;;
4274;SDS011;2151;50.988;11.068;2022-12-18T00:58:05;144.57;;;8.87;;
4274;SDS011;2151;50.988;11.068;2022-12-18T01:00:31;144.77;;;9.07;;
4274;SDS011;2151;50.988;11.068;2022-12-18T01:02:58;144.60;;;9.00;;
4274;SDS011;2151;50.988;11.068;2022-12-18T01:05:25;144.23;;;9.03;;
4274;SDS011;2151;50.988;11.068;2022-12-18T01:07:51;143.80;;;8.67;;
4274;SDS011;2151;50.988;11.068;2022-12-18T01:10:18;143.97;;;8.90;;
4274;SDS011;2151;50.988;11.068;2022-12-18T01:12:44;143.77;;;8.70;;
4274;SDS011;2151;50.988;11.068;2022-12-18T01:15:12;145.00;;;9.47;;
4274;SDS011;2151;50.988;11.068;2022-12-18T01:17:39;144.47;;;9.10;;
4274;SDS011;2151;50.988;11.068;2022-12-18T01:20:05;144.40;;;8.83;;
4274;SDS011;2151;50.988;11.068;2022-12-18T01:22:32;144.67;;;8.87;;
4274;SDS011;2151;50.988;11.068;2022-12-18T01:25:01;144.23;;;9.03;;
4274;SDS011;2151;50.988;11.068;2022-12-18T01:27:30;144.07;;;8.77;;
4274;SDS011;2151;50.988;11.068;2022-12-18T01:29:56;144.00;;;8.80;;
4274;SDS011;2151;50.988;11.068;2022-12-18T01:32:22;144.40;;;9.10;;
4274;SDS011;2151;50.988;11.068;2022-12-18T01:34:49;144.60;;;9.07;;
4274;SDS011;2151;50.988;11.068;2022-12-18T01:37:15;144.20;;;9.03;;
4274;SDS011;2151;50.988;11.068;2022-12-18T01:39:42;144.30;;;8.80;;
4274;SDS011;2151;50.988;11.068;2022-12-18T01:42:12;144.40;;;8.97;;
4274;SDS011;2151;50.988;11.068;2022-12-18T01:49:57;144.47;;;8.73;;
4274;SDS011;2151;50.988;11.068;2022-12-18T01:52:25;145.00;;;9.20;;
4274;SDS011;2151;50.988;11.068;2022-12-18T01:54:52;144.17;;;8.90;;
4274;SDS011;2151;50.988;11.068;2022-12-18T01:57:19;143.90;;;8.97;;
4274;SDS011;2151;50.988;11.068;2022-12-18T01:59:47;143.80;;;8.83;;
4274;SDS011;2151;50.988;11.068;2022-12-18T02:02:18;144.30;;;8.87;;
4274;SDS011;2151;50.988;11.068;2022-12-18T02:04:46;143.77;;;8.77;;
4274;SDS011;2151;50.988;11.068;2022-12-18T02:07:37;144.17;;;9.00;;
4274;SDS011;2151;50.988;11.068;2022-12-18T02:10:38;143.70;;;8.73;;
4274;SDS011;2151;50.988;11.068;2022-12-18T02:18:07;143.60;;;9.07;;
4274;SDS011;2151;50.988;11.068;2022-12-18T02:20:36;143.73;;;8.77;;
4274;SDS011;2151;50.988;11.068;2022-12-18T02:23:31;143.30;;;8.87;;
4274;SDS011;2151;50.988;11.068;2022-12-18T02:26:08;143.60;;;9.20;;
4274;SDS011;2151;50.988;11.068;2022-12-18T02:28:40;143.53;;;8.97;;
4274;SDS011;2151;50.988;11.068;2022-12-18T02:31:07;143.37;;;8.67;;
4274;SDS011;2151;50.988;11.068;2022-12-18T02:33:37;143.40;;;9.10;;
4274;SDS011;2151;50.988;11.068;2022-12-18T02:36:04;143.60;;;8.73;;
4274;SDS011;2151;50.988;11.068;2022-12-18T02:38:31;143.40;;;8.63;;
4274;SDS011;2151;50.988;11.068;2022-12-18T02:40:59;143.33;;;8.57;;
4274;SDS011;2151;50.988;11.068;2022-12-18T02:43:26;143.63;;;8.60;;
4274;SDS011;2151;50.988;11.068;2022-12-18T02:45:57;143.33;;;8.67;;
4274;SDS011;2151;50.988;11.068;2022-12-18T02:48:31;143.47;;;8.97;;
4274;SDS011;2151;50.988;11.068;2022-12-18T02:53:45;143.40;;;9.17;;
4274;SDS011;2151;50.988;11.068;2022-12-18T02:56:19;143.37;;;8.73;;
4274;SDS011;2151;50.988;11.068;2022-12-18T03:04:04;143.30;;;8.87;;
4274;SDS011;2151;50.988;11.068;2022-12-18T03:06:35;143.13;;;8.77;;
4274;SDS011;2151;50.988;11.068;2022-12-18T03:09:06;143.33;;;8.87;;
4274;SDS011;2151;50.988;11.068;2022-12-18T03:11:34;143.40;;;8.93;;
4274;SDS011;2151;50.988;11.068;2022-12-18T03:14:22;142.93;;;8.83;;
4274;SDS011;2151;50.988;11.068;2022-12-18T03:16:50;143.40;;;9.17;;
4274;SDS011;2151;50.988;11.068;2022-12-18T03:19:20;143.07;;;8.83;;
4274;SDS011;2151;50.988;11.068;2022-12-18T03:21:51;143.37;;;8.97;;
4274;SDS011;2151;50.988;11.068;2022-12-18T03:24:19;143.30;;;8.97;;
4274;SDS011;2151;50.988;11.068;2022-12-18T03:26:47;143.00;;;8.77;;
4274;SDS011;2151;50.988;11.068;2022-12-18T03:29:17;142.77;;;8.87;;
4274;SDS011;2151;50.988;11.068;2022-12-18T03:31:51;143.07;;;8.93;;
4274;SDS011;2151;50.988;11.068;2022-12-18T03:34:21;143.37;;;9.00;;
4274;SDS011;2151;50.988;11.068;2022-12-18T03:36:49;143.07;;;8.90;;
4274;SDS011;2151;50.988;11.068;2022-12-18T03:39:15;143.47;;;9.27;;
4274;SDS011;2151;50.988;11.068;2022-12-18T03:41:53;143.03;;;8.70;;
4274;SDS011;2151;50.988;11.068;2022-12-18T03:52:01;142.60;;;8.80;;
4274;SDS011;2151;50.988;11.068;2022-12-18T03:54:29;142.67;;;8.73;;
4274;SDS011;2151;50.988;11.068;2022-12-18T03:57:02;142.40;;;8.87;;
4274;SDS011;2151;50.988;11.068;2022-12-18T03:59:30;142.57;;;8.80;;
4274;SDS011;2151;50.988;11.068;2022-12-18T04:01:57;142.50;;;8.57;;
4274;SDS011;2151;50.988;11.068;2022-12-18T04:04:25;142.40;;;8.63;;
4274;SDS011;2151;50.988;11.068;2022-12-18T04:06:52;142.90;;;8.90;;
4274;SDS011;2151;50.988;11.068;2022-12-18T04:09:19;142.20;;;8.87;;
4274;SDS011;2151;50.988;11.068;2022-12-18T04:11:46;142.57;;;8.83;;
4274;SDS011;2151;50.988;11.068;2022-12-18T04:14:13;142.67;;;9.07;;
4274;SDS011;2151;50.988;11.068;2022-12-18T04:16:43;142.97;;;8.83;;
4274;SDS011;2151;50.988;11.068;2022-12-18T04:19:10;142.57;;;8.97;;
4274;SDS011;2151;50.988;11.068;2022-12-18T04:21:36;149.20;;;11.13;;
4274;SDS011;2151;50.988;11.068;2022-12-18T04:24:03;142.77;;;8.73;;
4274;SDS011;2151;50.988;11.068;2022-12-18T04:26:29;142.57;;;9.03;;
4274;SDS011;2151;50.988;11.068;2022-12-18T04:28:56;142.07;;;8.57;;
4274;SDS011;2151;50.988;11.068;2022-12-18T04:31:22;142.50;;;8.83;;
4274;SDS011;2151;50.988;11.068;2022-12-18T04:33:49;142.77;;;9.13;;
4274;SDS011;2151;50.988;11.068;2022-12-18T04:36:15;142.57;;;8.87;;
4274;SDS011;2151;50.988;11.068;2022-12-18T04:38:42;142.37;;;9.00;;
4274;SDS011;2151;50.988;11.068;2022-12-18T04:41:08;141.90;;;8.53;;
4274;SDS011;2151;50.988;11.068;2022-12-18T04:43:35;142.37;;;8.80;;
4274;SDS011;2151;50.988;11.068;2022-12-18T04:46:02;142.10;;;8.53;;
4274;SDS011;2151;50.988;11.068;2022-12-18T04:48:30;141.97;;;8.60;;
4274;SDS011;2151;50.988;11.068;2022-12-18T04:50:56;142.30;;;8.80;;
4274;SDS011;2151;50.988;11.068;2022-12-18T04:53:23;142.20;;;8.77;;
4274;SDS011;2151;50.988;11.068;2022-12-18T04:55:50;143.17;;;9.83;;
4274;SDS011;2151;50.988;11.068;2022-12-18T04:58:16;141.67;;;8.60;;
4274;SDS011;2151;50.988;11.068;2022-12-18T05:00:43;142.07;;;8.90;;
4274;SDS011;2151;50.988;11.068;2022-12-18T05:03:09;142.03;;;8.83;;
4274;SDS011;2151;50.988;11.068;2022-12-18T05:05:36;141.90;;;8.67;;
4274;SDS011;2151;50.988;11.068;2022-12-18T05:08:02;141.70;;;8.53;;
4274;SDS011;2151;50.988;11.068;2022-12-18T05:10:29;141.60;;;8.47;;
4274;SDS011;2151;50.988;11.068;2022-12-18T05:13:02;142.17;;;8.93;;
4274;SDS011;2151;50.988;11.068;2022-12-18T05:15:29;141.70;;;8.63;;
4274;SDS011;2151;50.988;11.068;2022-12-18T05:17:57;142.07;;;8.47;;
4274;SDS011;2151;50.988;11.068;2022-12-18T05:20:24;142.17;;;9.03;;
4274;SDS011;2151;50.988;11.068;2022-12-18T05:22:51;141.87;;;8.70;;
4274;SDS011;2151;50.988;11.068;2022-12-18T05:25:18;141.97;;;8.47;;
4274;SDS011;2151;50.988;11.068;2022-12-18T05:27:45;142.75;;;8.60;;
4274;SDS011;2151;50.988;11.068;2022-12-18T05:30:12;141.97;;;8.60;;
4274;SDS011;2151;50.988;11.068;2022-12-18T05:32:39;141.63;;;8.53;;
4274;SDS011;2151;50.988;11.068;2022-12-18T05:35:06;142.10;;;8.80;;
4274;SDS011;2151;50.988;11.068;2022-12-18T05:37:34;141.63;;;8.63;;
4274;SDS011;2151;50.988;11.068;2022-12-18T05:40:07;142.93;;;8.85;;
4274;SDS011;2151;50.988;11.068;2022-12-18T05:42:35;142.20;;;9.03;;
4274;SDS011;2151;50.988;11.068;2022-12-18T05:45:03;142.25;;;8.80;;
4274;SDS011;2151;50.988;11.068;2022-12-18T05:47:30;141.82;;;8.57;;
4274;SDS011;2151;50.988;11.068;2022-12-18T05:49:57;142.17;;;8.57;;
4274;SDS011;2151;50.988;11.068;2022-12-18T05:52:23;142.57;;;8.88;;
4274;SDS011;2151;50.988;11.068;2022-12-18T05:54:50;142.77;;;9.45;;
4274;SDS011;2151;50.988;11.068;2022-12-18T05:57:17;141.75;;;8.60;;
4274;SDS011;2151;50.988;11.068;2022-12-18T05:59:43;142.37;;;8.80;;
4274;SDS011;2151;50.988;11.068;2022-12-18T06:02:10;142.40;;;9.07;;
4274;SDS011;2151;50.988;11.068;2022-12-18T06:04:37;141.90;;;9.07;;
4274;SDS011;2151;50.988;11.068;2022-12-18T06:07:03;142.07;;;8.90;;
4274;SDS011;2151;50.988;11.068;2022-12-18T06:09:30;143.63;;;10.50;;
4274;SDS011;2151;50.988;11.068;2022-12-18T06:11:56;142.17;;;8.93;;
4274;SDS011;2151;50.988;11.068;2022-12-18T06:14:23;142.33;;;8.80;;
4274;SDS011;2151;50.988;11.068;2022-12-18T06:16:52;141.97;;;8.67;;
4274;SDS011;2151;50.988;11.068;2022-12-18T06:19:19;142.27;;;8.68;;
4274;SDS011;2151;50.988;11.068;2022-12-18T06:21:46;141.97;;;9.07;;
4274;SDS011;2151;50.988;11.068;2022-12-18T06:24:12;142.30;;;9.05;;
4274;SDS011;2151;50.988;11.068;2022-12-18T06:26:39;142.10;;;8.83;;
4274;SDS011;2151;50.988;11.068;2022-12-18T06:29:05;144.60;;;10.85;;
4274;SDS011;2151;50.988;11.068;2022-12-18T06:31:32;143.07;;;9.88;;
4274;SDS011;2151;50.988;11.068;2022-12-18T06:33:59;142.13;;;9.05;;
4274;SDS011;2151;50.988;11.068;2022-12-18T06:36:28;141.93;;;8.95;;
4274;SDS011;2151;50.988;11.068;2022-12-18T06:38:57;142.57;;;9.45;;
4274;SDS011;2151;50.988;11.068;2022-12-18T06:41:24;142.13;;;9.02;;
4274;SDS011;2151;50.988;11.068;2022-12-18T06:43:50;141.73;;;8.88;;
4274;SDS011;2151;50.988;11.068;2022-12-18T06:46:20;142.38;;;9.05;;
4274;SDS011;2151;50.988;11.068;2022-12-18T06:48:47;142.38;;;8.95;;
4274;SDS011;2151;50.988;11.068;2022-12-18T06:51:17;142.15;;;9.00;;
4274;SDS011;2151;50.988;11.068;2022-12-18T06:53:44;142.00;;;8.87;;
4274;SDS011;2151;50.988;11.068;2022-12-18T06:56:11;142.65;;;9.25;;
4274;SDS011;2151;50.988;11.068;2022-12-18T06:58:38;142.52;;;9.05;;
4274;SDS011;2151;50.988;11.068;2022-12-18T07:01:05;142.45;;;8.85;;
4274;SDS011;2151;50.988;11.068;2022-12-18T07:03:34;141.75;;;8.75;;
4274;SDS011;2151;50.988;11.068;2022-12-18T07:06:00;142.63;;;9.05;;
4274;SDS011;2151;50.988;11.068;2022-12-18T07:08:28;142.40;;;8.98;;
4274;SDS011;2151;50.988;11.068;2022-12-18T07:10:55;142.38;;;8.75;;
4274;SDS011;2151;50.988;11.068;2022-12-18T07:13:22;141.97;;;8.87;;
4274;SDS011;2151;50.988;11.068;2022-12-18T07:15:48;142.27;;;9.38;;
4274;SDS011;2151;50.988;11.068;2022-12-18T07:18:15;141.80;;;8.67;;
4274;SDS011;2151;50.988;11.068;2022-12-18T07:20:42;142.20;;;9.05;;
4274;SDS011;2151;50.988;11.068;2022-12-18T07:23:10;142.13;;;8.68;;
4274;SDS011;2151;50.988;11.068;2022-12-18T07:25:36;141.93;;;8.82;;
4274;SDS011;2151;50.988;11.068;2022-12-18T07:28:03;141.55;;;9.00;;
4274;SDS011;2151;50.988;11.068;2022-12-18T07:30:30;141.55;;;8.82;;
4274;SDS011;2151;50.988;11.068;2022-12-18T07:32:57;141.95;;;9.02;;
4274;SDS011;2151;50.988;11.068;2022-12-18T07:35:23;141.68;;;8.90;;
4274;SDS011;2151;50.988;11.068;2022-12-18T07:37:50;141.85;;;9.10;;
4274;SDS011;2151;50.988;11.068;2022-12-18T07:40:17;141.48;;;9.10;;
4274;SDS011;2151;50.988;11.068;2022-12-18T07:42:43;141.32;;;8.93;;
4274;SDS011;2151;50.988;11.068;2022-12-18T07:45:10;141.60;;;8.82;;
4274;SDS011;2151;50.988;11.068;2022-12-18T07:47:36;140.95;;;8.80;;
4274;SDS011;2151;50.988;11.068;2022-12-18T07:50:03;141.50;;;9.05;;
4274;SDS011;2151;50.988;11.068;2022-12-18T07:52:31;141.00;;;8.90;;
4274;SDS011;2151;50.988;11.068;2022-12-18T07:54:57;141.35;;;8.85;;
4274;SDS011;2151;50.988;11.068;2022-12-18T07:57:28;141.32;;;8.90;;
4274;SDS011;2151;50.988;11.068;2022-12-18T08:00:14;141.20;;;9.02;;
4274;SDS011;2151;50.988;11.068;2022-12-18T08:02:43;141.60;;;9.32;;
4274;SDS011;2151;50.988;11.068;2022-12-18T08:05:09;141.70;;;8.90;;
4274;SDS011;2151;50.988;11.068;2022-12-18T08:07:36;142.00;;;8.82;;
4274;SDS011;2151;50.988;11.068;2022-12-18T08:10:03;141.88;;;9.18;;
4274;SDS011;2151;50.988;11.068;2022-12-18T08:12:29;141.23;;;8.82;;
4274;SDS011;2151;50.988;11.068;2022-12-18T08:14:56;143.13;;;10.00;;
4274;SDS011;2151;50.988;11.068;2022-12-18T08:17:23;142.43;;;9.15;;
4274;SDS011;2151;50.988;11.068;2022-12-18T08:19:49;141.95;;;9.10;;
4274;SDS011;2151;50.988;11.068;2022-12-18T08:22:16;142.00;;;8.95;;
4274;SDS011;2151;50.988;11.068;2022-12-18T08:24:42;141.57;;;9.05;;
4274;SDS011;2151;50.988;11.068;2022-12-18T08:27:09;142.10;;;9.00;;
4274;SDS011;2151;50.988;11.068;2022-12-18T08:29:54;142.38;;;8.77;;
4274;SDS011;2151;50.988;11.068;2022-12-18T08:32:20;141.73;;;8.73;;
4274;SDS011;2151;50.988;11.068;2022-12-18T08:34:47;141.77;;;8.70;;
4274;SDS011;2151;50.988;11.068;2022-12-18T08:37:13;141.63;;;8.65;;
4274;SDS011;2151;50.988;11.068;2022-12-18T08:39:40;141.75;;;8.75;;
4274;SDS011;2151;50.988;11.068;2022-12-18T08:42:06;141.82;;;8.75;;
4274;SDS011;2151;50.988;11.068;2022-12-18T08:44:51;141.80;;;8.65;;
4274;SDS011;2151;50.988;11.068;2022-12-18T08:47:18;141.50;;;8.57;;
4274;SDS011;2151;50.988;11.068;2022-12-18T08:49:45;141.30;;;8.43;;
4274;SDS011;2151;50.988;11.068;2022-12-18T08:52:11;142.05;;;8.65;;
4274;SDS011;2151;50.988;11.068;2022-12-18T08:54:40;141.95;;;8.85;;
4274;SDS011;2151;50.988;11.068;2022-12-18T08:57:07;141.88;;;8.68;;
4274;SDS011;2151;50.988;11.068;2022-12-18T08:59:34;141.88;;;8.75;;
4274;SDS011;2151;50.988;11.068;2022-12-18T09:02:01;141.73;;;8.93;;
4274;SDS011;2151;50.988;11.068;2022-12-18T09:04:28;141.47;;;8.43;;
4274;SDS011;2151;50.988;11.068;2022-12-18T09:06:54;141.32;;;8.60;;
4274;SDS011;2151;50.988;11.068;2022-12-18T09:09:20;142.15;;;8.65;;
4274;SDS011;2151;50.988;11.068;2022-12-18T09:11:47;141.57;;;8.75;;
4274;SDS011;2151;50.988;11.068;2022-12-18T09:14:14;142.13;;;9.05;;
4274;SDS011;2151;50.988;11.068;2022-12-18T09:16:40;142.07;;;8.80;;
4274;SDS011;2151;50.988;11.068;2022-12-18T09:19:07;141.80;;;8.45;;
4274;SDS011;2151;50.988;11.068;2022-12-18T09:21:34;141.90;;;8.65;;
4274;SDS011;2151;50.988;11.068;2022-12-18T09:24:10;141.88;;;8.50;;
4274;SDS011;2151;50.988;11.068;2022-12-18T09:26:38;141.93;;;8.52;;
4274;SDS011;2151;50.988;11.068;2022-12-18T09:29:05;141.67;;;8.73;;
4274;SDS011;2151;50.988;11.068;2022-12-18T09:31:33;141.55;;;8.80;;
4274;SDS011;2151;50.988;11.068;2022-12-18T09:33:59;142.30;;;8.88;;
4274;SDS011;2151;50.988;11.068;2022-12-18T09:36:26;142.18;;;8.82;;
4274;SDS011;2151;50.988;11.068;2022-12-18T09:38:52;142.07;;;8.65;;
4274;SDS011;2151;50.988;11.068;2022-12-18T09:49:37;141.50;;;8.67;;
4274;SDS011;2151;50.988;11.068;2022-12-18T09:52:11;141.68;;;8.52;;
4274;SDS011;2151;50.988;11.068;2022-12-18T09:54:41;141.93;;;8.85;;
4274;SDS011;2151;50.988;11.068;2022-12-18T09:57:13;141.77;;;8.90;;
4274;SDS011;2151;50.988;11.068;2022-12-18T09:59:41;142.00;;;8.85;;
4274;SDS011;2151;50.988;11.068;2022-12-18T10:02:12;141.13;;;8.57;;
4274;SDS011;2151;50.988;11.068;2022-12-18T10:04:41;141.87;;;9.00;;
4274;SDS011;2151;50.988;11.068;2022-12-18T10:07:16;141.55;;;8.82;;
4274;SDS011;2151;50.988;11.068;2022-12-18T10:10:06;141.07;;;8.50;;
4274;SDS011;2151;50.988;11.068;2022-12-18T10:13:12;141.00;;;8.43;;
4274;SDS011;2151;50.988;11.068;2022-12-18T10:18:28;146.15;;;10.45;;
4274;SDS011;2151;50.988;11.068;2022-12-18T10:20:56;141.55;;;8.30;;
4274;SDS011;2151;50.988;11.068;2022-12-18T10:26:29;140.57;;;8.07;;
4274;SDS011;2151;50.988;11.068;2022-12-18T10:28:58;141.33;;;8.50;;
4274;SDS011;2151;50.988;11.068;2022-12-18T10:31:30;141.00;;;8.80;;
4274;SDS011;2151;50.988;11.068;2022-12-18T10:33:57;140.93;;;8.50;;
4274;SDS011;2151;50.988;11.068;2022-12-18T10:36:24;142.10;;;9.37;;
4274;SDS011;2151;50.988;11.068;2022-12-18T10:38:50;140.47;;;8.17;;
4274;SDS011;2151;50.988;11.068;2022-12-18T10:43:43;140.27;;;8.50;;
4274;SDS011;2151;50.988;11.068;2022-12-18T10:48:50;140.47;;;8.47;;
4274;SDS011;2151;50.988;11.068;2022-12-18T10:51:33;140.60;;;8.60;;
4274;SDS011;2151;50.988;11.068;2022-12-18T10:54:04;140.37;;;8.60;;
4274;SDS011;2151;50.988;11.068;2022-12-18T10:56:33;140.67;;;8.83;;
4274;SDS011;2151;50.988;11.068;2022-12-18T10:59:05;141.37;;;8.80;;
4274;SDS011;2151;50.988;11.068;2022-12-18T11:01:54;140.17;;;8.30;;
4274;SDS011;2151;50.988;11.068;2022-12-18T11:04:25;141.07;;;8.67;;
4274;SDS011;2151;50.988;11.068;2022-12-18T11:06:57;140.27;;;8.43;;
4274;SDS011;2151;50.988;11.068;2022-12-18T11:09:30;140.90;;;8.30;;
4274;SDS011;2151;50.988;11.068;2022-12-18T11:11:59;140.60;;;8.53;;
4274;SDS011;2151;50.988;11.068;2022-12-18T11:14:28;140.87;;;8.37;;
4274;SDS011;2151;50.988;11.068;2022-12-18T11:16:56;141.37;;;8.70;;
4274;SDS011;2151;50.988;11.068;2022-12-18T11:19:43;140.67;;;8.57;;
4274;SDS011;2151;50.988;11.068;2022-12-18T11:24:57;140.97;;;8.37;;
4274;SDS011;2151;50.988;11.068;2022-12-18T11:27:49;142.00;;;9.67;;
4274;SDS011;2151;50.988;11.068;2022-12-18T11:30:25;141.40;;;8.47;;
4274;SDS011;2151;50.988;11.068;2022-12-18T11:35:47;140.97;;;8.47;;
4274;SDS011;2151;50.988;11.068;2022-12-18T11:38:26;141.07;;;8.57;;
4274;SDS011;2151;50.988;11.068;2022-12-18T11:40:58;140.87;;;8.63;;
4274;SDS011;2151;50.988;11.068;2022-12-18T11:43:28;140.97;;;8.43;;
4274;SDS011;2151;50.988;11.068;2022-12-18T11:45:59;141.40;;;8.53;;
4274;SDS011;2151;50.988;11.068;2022-12-18T11:48:37;141.07;;;8.57;;
4274;SDS011;2151;50.988;11.068;2022-12-18T11:51:10;140.97;;;8.43;;
4274;SDS011;2151;50.988;11.068;2022-12-18T11:53:40;140.47;;;8.23;;
4274;SDS011;2151;50.988;11.068;2022-12-18T12:15:29;140.97;;;8.57;;
4274;SDS011;2151;50.988;11.068;2022-12-18T12:18:08;141.30;;;8.50;;
4274;SDS011;2151;50.988;11.068;2022-12-18T12:21:17;141.20;;;8.70;;
4274;SDS011;2151;50.988;11.068;2022-12-18T12:31:58;140.47;;;8.63;;
4274;SDS011;2151;50.988;11.068;2022-12-18T12:34:34;140.73;;;8.40;;
4274;SDS011;2151;50.988;11.068;2022-12-18T12:39:35;140.57;;;8.37;;
4274;SDS011;2151;50.988;11.068;2022-12-18T12:42:12;140.30;;;8.40;;
4274;SDS011;2151;50.988;11.068;2022-12-18T12:45:03;140.23;;;8.47;;
4274;SDS011;2151;50.988;11.068;2022-12-18T12:47:41;140.70;;;8.60;;
4274;SDS011;2151;50.988;11.068;2022-12-18T12:50:12;140.37;;;8.47;;
4274;SDS011;2151;50.988;11.068;2022-12-18T12:52:45;140.80;;;8.50;;
4274;SDS011;2151;50.988;11.068;2022-12-18T12:55:14;140.50;;;8.13;;
4274;SDS011;2151;50.988;11.068;2022-12-18T12:57:46;140.87;;;8.40;;
4274;SDS011;2151;50.988;11.068;2022-12-18T13:00:18;140.77;;;8.50;;
4274;SDS011;2151;50.988;11.068;2022-12-18T13:05:54;141.37;;;8.63;;
4274;SDS011;2151;50.988;11.068;2022-12-18T13:08:26;141.57;;;8.57;;
4274;SDS011;2151;50.988;11.068;2022-12-18T13:10:59;141.83;;;9.00;;
4274;SDS011;2151;50.988;11.068;2022-12-18T13:13:48;141.37;;;8.37;;
4274;SDS011;2151;50.988;11.068;2022-12-18T13:16:20;141.40;;;8.50;;
4274;SDS011;2151;50.988;11.068;2022-12-18T13:18:52;141.33;;;8.37;;
4274;SDS011;2151;50.988;11.068;2022-12-18T13:21:21;140.90;;;8.43;;
4274;SDS011;2151;50.988;11.068;2022-12-18T13:23:51;140.93;;;8.33;;
4274;SDS011;2151;50.988;11.068;2022-12-18T13:28:52;141.50;;;8.77;;
4274;SDS011;2151;50.988;11.068;2022-12-18T13:34:17;141.30;;;8.50;;
4274;SDS011;2151;50.988;11.068;2022-12-18T13:36:54;141.17;;;8.47;;
4274;SDS011;2151;50.988;11.068;2022-12-18T13:39:23;141.83;;;8.50;;
4274;SDS011;2151;50.988;11.068;2022-12-18T13:44:40;141.37;;;8.80;;
4274;SDS011;2151;50.988;11.068;2022-12-18T13:50:04;141.27;;;8.27;;
4274;SDS011;2151;50.988;11.068;2022-12-18T13:52:37;141.07;;;8.43;;
4274;SDS011;2151;50.988;11.068;2022-12-18T13:55:07;141.80;;;8.60;;
4274;SDS011;2151;50.988;11.068;2022-12-18T13:57:40;141.80;;;8.67;;
4274;SDS011;2151;50.988;11.068;2022-12-18T14:02:48;141.27;;;8.43;;
4274;SDS011;2151;50.988;11.068;2022-12-18T14:05:32;141.60;;;8.50;;
4274;SDS011;2151;50.988;11.068;2022-12-18T14:08:03;142.50;;;9.93;;
4274;SDS011;2151;50.988;11.068;2022-12-18T14:10:32;141.70;;;8.60;;
4274;SDS011;2151;50.988;11.068;2022-12-18T14:13:21;141.70;;;8.70;;
4274;SDS011;2151;50.988;11.068;2022-12-18T14:15:51;141.03;;;8.37;;
4274;SDS011;2151;50.988;11.068;2022-12-18T14:20:48;141.80;;;8.40;;
4274;SDS011;2151;50.988;11.068;2022-12-18T14:23:32;141.47;;;8.67;;
4274;SDS011;2151;50.988;11.068;2022-12-18T14:26:00;141.90;;;8.33;;
4274;SDS011;2151;50.988;11.068;2022-12-18T14:28:31;141.67;;;8.63;;
4274;SDS011;2151;50.988;11.068;2022-12-18T14:30:57;142.60;;;9.40;;
4274;SDS011;2151;50.988;11.068;2022-12-18T14:33:25;142.67;;;8.90;;
4274;SDS011;2151;50.988;11.068;2022-12-18T14:35:59;141.40;;;8.47;;
4274;SDS011;2151;50.988;11.068;2022-12-18T14:38:37;141.80;;;8.67;;
4274;SDS011;2151;50.988;11.068;2022-12-18T14:41:11;142.03;;;8.70;;
4274;SDS011;2151;50.988;11.068;2022-12-18T14:43:40;142.97;;;9.63;;
4274;SDS011;2151;50.988;11.068;2022-12-18T14:46:28;141.97;;;8.63;;
4274;SDS011;2151;50.988;11.068;2022-12-18T14:48:56;142.10;;;8.60;;
4274;SDS011;2151;50.988;11.068;2022-12-18T14:51:24;142.47;;;8.90;;
4274;SDS011;2151;50.988;11.068;2022-12-18T14:53:56;141.47;;;8.53;;
4274;SDS011;2151;50.988;11.068;2022-12-18T14:56:34;141.47;;;8.60;;
4274;SDS011;2151;50.988;11.068;2022-12-18T14:59:06;142.03;;;8.90;;
4274;SDS011;2151;50.988;11.068;2022-12-18T15:01:50;141.83;;;8.57;;
4274;SDS011;2151;50.988;11.068;2022-12-18T15:04:35;141.67;;;8.43;;
4274;SDS011;2151;50.988;11.068;2022-12-18T15:07:16;142.13;;;8.70;;
4274;SDS011;2151;50.988;11.068;2022-12-18T15:09:59;141.97;;;8.57;;
4274;SDS011;2151;50.988;11.068;2022-12-18T15:12:36;141.97;;;8.63;;
4274;SDS011;2151;50.988;11.068;2022-12-18T15:18:11;141.50;;;8.57;;
4274;SDS011;2151;50.988;11.068;2022-12-18T15:20:39;141.67;;;8.30;;
4274;SDS011;2151;50.988;11.068;2022-12-18T15:26:17;142.07;;;8.40;;
4274;SDS011;2151;50.988;11.068;2022-12-18T15:33:44;141.53;;;8.40;;
4274;SDS011;2151;50.988;11.068;2022-12-18T15:36:16;142.40;;;9.30;;
4274;SDS011;2151;50.988;11.068;2022-12-18T15:38:48;142.07;;;9.03;;
4274;SDS011;2151;50.988;11.068;2022-12-18T15:41:16;142.37;;;9.10;;
4274;SDS011;2151;50.988;11.068;2022-12-18T15:43:49;141.70;;;8.57;;
4274;SDS011;2151;50.988;11.068;2022-12-18T15:48:45;142.17;;;8.70;;
4274;SDS011;2151;50.988;11.068;2022-12-18T15:51:19;141.87;;;8.87;;
4274;SDS011;2151;50.988;11.068;2022-12-18T15:54:00;142.27;;;8.70;;
4274;SDS011;2151;50.988;11.068;2022-12-18T15:56:30;142.20;;;8.70;;
4274;SDS011;2151;50.988;11.068;2022-12-18T15:59:16;142.00;;;8.70;;
4274;SDS011;2151;50.988;11.068;2022-12-18T16:01:49;141.90;;;8.53;;
4274;SDS011;2151;50.988;11.068;2022-12-18T16:04:18;142.23;;;8.60;;
4274;SDS011;2151;50.988;11.068;2022-12-18T16:06:50;142.00;;;8.63;;
4274;SDS011;2151;50.988;11.068;2022-12-18T16:09:41;141.60;;;8.50;;
4274;SDS011;2151;50.988;11.068;2022-12-18T16:12:21;142.17;;;8.63;;
4274;SDS011;2151;50.988;11.068;2022-12-18T16:14:56;141.93;;;8.53;;
4274;SDS011;2151;50.988;11.068;2022-12-18T16:17:33;141.90;;;9.17;;
4274;SDS011;2151;50.988;11.068;2022-12-18T16:22:50;141.47;;;8.33;;
4274;SDS011;2151;50.988;11.068;2022-12-18T16:25:21;142.10;;;8.67;;
4274;SDS011;2151;50.988;11.068;2022-12-18T16:27:54;141.70;;;8.37;;
4274;SDS011;2151;50.988;11.068;2022-12-18T16:30:25;142.53;;;8.93;;
4274;SDS011;2151;50.988;11.068;2022-12-18T16:32:54;142.40;;;8.67;;
4274;SDS011;2151;50.988;11.068;2022-12-18T16:35:22;141.87;;;8.37;;
4274;SDS011;2151;50.988;11.068;2022-12-18T16:37:49;142.87;;;9.83;;
4274;SDS011;2151;50.988;11.068;2022-12-18T16:40:16;141.90;;;8.80;;
4274;SDS011;2151;50.988;11.068;2022-12-18T16:42:44;142.30;;;8.87;;
4274;SDS011;2151;50.988;11.068;2022-12-18T16:45:13;143.07;;;9.77;;
4274;SDS011;2151;50.988;11.068;2022-12-18T16:47:41;142.17;;;8.63;;